sensor_id;sensor_type;location;lat;lon;timestamp;pressure;altitude;pressure_sealevel;temperature;humidity
18569;BME280;14780;48.316;-1.050;2023-04-21T00:02:42;98648.63;;;22.95;32.62
18569;BME280;14780;48.316;-1.050;2023-04-21T00:05:27;98639.09;;;22.92;32.61
18569;BME280;14780;48.316;-1.050;2023-04-21T00:08:11;98641.81;;;22.92;32.75
18569;BME280;14780;48.316;-1.050;2023-04-21T00:10:56;98645.38;;;22.93;32.63
18569;BME280;14780;48.316;-1.050;2023-04-21T00:13:41;98634.47;;;22.93;32.64
18569;BME280;14780;48.316;-1.050;2023-04-21T00:16:26;98630.91;;;22.92;32.62
18569;BME280;14780;48.316;-1.050;2023-04-21T00:19:10;98631.16;;;22.91;32.75
18569;BME280;14780;48.316;-1.050;2023-04-21T00:21:57;98618.63;;;22.90;32.68
18569;BME280;14780;48.316;-1.050;2023-04-21T00:24:43;98615.91;;;22.90;32.61
18569;BME280;14780;48.316;-1.050;2023-04-21T00:27:28;98610.44;;;22.90;32.63
18569;BME280;14780;48.316;-1.050;2023-04-21T00:30:14;98616.19;;;22.88;32.67
18569;BME280;14780;48.316;-1.050;2023-04-21T00:32:58;98609.91;;;22.88;32.68
18569;BME280;14780;48.316;-1.050;2023-04-21T00:35:44;98611.00;;;22.87;32.80
18569;BME280;14780;48.316;-1.050;2023-04-21T00:38:28;98604.19;;;22.84;32.81
18569;BME280;14780;48.316;-1.050;2023-04-21T00:41:13;98597.94;;;22.84;32.71
18569;BME280;14780;48.316;-1.050;2023-04-21T00:44:04;98601.72;;;22.83;32.74
18569;BME280;14780;48.316;-1.050;2023-04-21T00:46:49;98589.19;;;22.82;32.74
18569;BME280;14780;48.316;-1.050;2023-04-21T00:49:34;98595.22;;;22.79;32.75
18569;BME280;14780;48.316;-1.050;2023-04-21T00:52:19;98595.47;;;22.77;32.67
18569;BME280;14780;48.316;-1.050;2023-04-21T00:55:04;98597.13;;;22.78;32.69
18569;BME280;14780;48.316;-1.050;2023-04-21T00:57:51;98588.66;;;22.75;32.65
18569;BME280;14780;48.316;-1.050;2023-04-21T01:00:37;98580.78;;;22.73;32.76
18569;BME280;14780;48.316;-1.050;2023-04-21T01:03:23;98585.41;;;22.73;32.82
18569;BME280;14780;48.316;-1.050;2023-04-21T01:06:08;98578.31;;;22.72;32.77
18569;BME280;14780;48.316;-1.050;2023-04-21T01:08:53;98568.50;;;22.71;32.77
18569;BME280;14780;48.316;-1.050;2023-04-21T01:11:38;98568.78;;;22.69;32.79
18569;BME280;14780;48.316;-1.050;2023-04-21T01:14:25;98567.94;;;22.69;32.76
18569;BME280;14780;48.316;-1.050;2023-04-21T01:17:10;98563.59;;;22.68;32.67
18569;BME280;14780;48.316;-1.050;2023-04-21T01:19:55;98567.94;;;22.69;32.67
18569;BME280;14780;48.316;-1.050;2023-04-21T01:22:41;98554.88;;;22.66;32.73
18569;BME280;14780;48.316;-1.050;2023-04-21T01:25:28;98550.53;;;22.65;32.76
18569;BME280;14780;48.316;-1.050;2023-04-21T01:28:13;98546.44;;;22.62;32.67
18569;BME280;14780;48.316;-1.050;2023-04-21T01:30:57;98554.63;;;22.62;32.75
18569;BME280;14780;48.316;-1.050;2023-04-21T01:33:42;98551.06;;;22.62;32.63
18569;BME280;14780;48.316;-1.050;2023-04-21T01:36:27;98547.81;;;22.60;32.68
18569;BME280;14780;48.316;-1.050;2023-04-21T01:39:12;98543.72;;;22.57;32.73
18569;BME280;14780;48.316;-1.050;2023-04-21T01:41:57;98547.00;;;22.59;32.72
18569;BME280;14780;48.316;-1.050;2023-04-21T01:44:41;98548.91;;;22.59;32.63
18569;BME280;14780;48.316;-1.050;2023-04-21T01:47:26;98540.97;;;22.57;32.66
18569;BME280;14780;48.316;-1.050;2023-04-21T01:50:11;98537.47;;;22.57;32.78
18569;BME280;14780;48.316;-1.050;2023-04-21T01:52:56;98537.47;;;22.57;32.71
18569;BME280;14780;48.316;-1.050;2023-04-21T01:55:41;98530.38;;;22.56;32.69
18569;BME280;14780;48.316;-1.050;2023-04-21T01:58:25;98534.16;;;22.55;32.70
18569;BME280;14780;48.316;-1.050;2023-04-21T02:01:10;98528.72;;;22.55;32.66
18569;BME280;14780;48.316;-1.050;2023-04-21T02:03:55;98530.91;;;22.53;32.71
18569;BME280;14780;48.316;-1.050;2023-04-21T02:06:39;98529.28;;;22.52;32.81
18569;BME280;14780;48.316;-1.050;2023-04-21T02:09:24;98530.13;;;22.52;32.75
18569;BME280;14780;48.316;-1.050;2023-04-21T02:12:09;98520.56;;;22.50;32.77
18569;BME280;14780;48.316;-1.050;2023-04-21T02:14:54;98529.84;;;22.49;32.78
18569;BME280;14780;48.316;-1.050;2023-04-21T02:17:38;98524.41;;;22.49;32.79
18569;BME280;14780;48.316;-1.050;2023-04-21T02:20:23;98526.03;;;22.50;32.80
18569;BME280;14780;48.316;-1.050;2023-04-21T02:23:08;98517.31;;;22.48;32.76
18569;BME280;14780;48.316;-1.050;2023-04-21T02:25:52;98515.13;;;22.50;32.69
18569;BME280;14780;48.316;-1.050;2023-04-21T02:28:37;98518.94;;;22.49;32.74
18569;BME280;14780;48.316;-1.050;2023-04-21T02:31:21;98517.31;;;22.48;32.77
18569;BME280;14780;48.316;-1.050;2023-04-21T02:34:06;98518.13;;;22.48;32.83
18569;BME280;14780;48.316;-1.050;2023-04-21T02:36:51;98515.66;;;22.47;32.71
18569;BME280;14780;48.316;-1.050;2023-04-21T02:39:35;98514.03;;;22.46;32.79
18569;BME280;14780;48.316;-1.050;2023-04-21T02:42:20;98511.59;;;22.44;32.76
18569;BME280;14780;48.316;-1.050;2023-04-21T02:45:06;98507.50;;;22.42;32.83
18569;BME280;14780;48.316;-1.050;2023-04-21T02:47:50;98509.16;;;22.43;32.77
18569;BME280;14780;48.316;-1.050;2023-04-21T02:50:35;98502.06;;;22.42;32.75
18569;BME280;14780;48.316;-1.050;2023-04-21T02:53:21;98494.94;;;22.41;32.78
18569;BME280;14780;48.316;-1.050;2023-04-21T02:56:07;98505.03;;;22.40;32.82
18569;BME280;14780;48.316;-1.050;2023-04-21T02:58:52;98486.22;;;22.39;32.88
18569;BME280;14780;48.316;-1.050;2023-04-21T03:01:37;98481.84;;;22.38;32.78
18569;BME280;14780;48.316;-1.050;2023-04-21T03:04:21;98487.56;;;22.36;32.77
18569;BME280;14780;48.316;-1.050;2023-04-21T03:07:12;98489.78;;;22.34;32.77
18569;BME280;14780;48.316;-1.050;2023-04-21T03:09:58;98483.53;;;22.34;32.76
18569;BME280;14780;48.316;-1.050;2023-04-21T03:12:42;98479.97;;;22.33;32.80
18569;BME280;14780;48.316;-1.050;2023-04-21T03:15:27;98486.50;;;22.32;32.84
18569;BME280;14780;48.316;-1.050;2023-04-21T03:18:13;98476.97;;;22.30;32.80
18569;BME280;14780;48.316;-1.050;2023-04-21T03:21:00;98487.88;;;22.30;32.75
18569;BME280;14780;48.316;-1.050;2023-04-21T03:23:45;98487.34;;;22.28;32.94
18569;BME280;14780;48.316;-1.050;2023-04-21T03:26:29;98481.34;;;22.26;32.79
18569;BME280;14780;48.316;-1.050;2023-04-21T03:29:14;98480.53;;;22.25;32.75
18569;BME280;14780;48.316;-1.050;2023-04-21T03:31:58;98475.09;;;22.25;32.84
18569;BME280;14780;48.316;-1.050;2023-04-21T03:34:43;98462.81;;;22.23;32.88
18569;BME280;14780;48.316;-1.050;2023-04-21T03:37:28;98473.72;;;22.23;32.80
18569;BME280;14780;48.316;-1.050;2023-04-21T03:40:12;98474.00;;;22.21;32.75
18569;BME280;14780;48.316;-1.050;2023-04-21T03:42:57;98475.09;;;22.20;32.84
18569;BME280;14780;48.316;-1.050;2023-04-21T03:45:41;98477.28;;;22.18;32.87
18569;BME280;14780;48.316;-1.050;2023-04-21T03:48:27;98471.00;;;22.18;32.91
18569;BME280;14780;48.316;-1.050;2023-04-21T03:51:13;98472.09;;;22.17;32.81
18569;BME280;14780;48.316;-1.050;2023-04-21T03:53:58;98472.09;;;22.17;32.84
18569;BME280;14780;48.316;-1.050;2023-04-21T03:56:43;98460.66;;;22.15;32.87
18569;BME280;14780;48.316;-1.050;2023-04-21T03:59:27;98455.47;;;22.13;32.87
18569;BME280;14780;48.316;-1.050;2023-04-21T04:02:12;98449.22;;;22.13;32.83
18569;BME280;14780;48.316;-1.050;2023-04-21T04:04:56;98453.84;;;22.12;32.86
18569;BME280;14780;48.316;-1.050;2023-04-21T04:07:41;98450.59;;;22.10;32.88
18569;BME280;14780;48.316;-1.050;2023-04-21T04:10:26;98455.78;;;22.12;32.77
18569;BME280;14780;48.316;-1.050;2023-04-21T04:13:11;98445.94;;;22.11;32.91
18569;BME280;14780;48.316;-1.050;2023-04-21T04:15:56;98454.13;;;22.11;32.87
18569;BME280;14780;48.316;-1.050;2023-04-21T04:18:41;98439.69;;;22.10;32.88
18569;BME280;14780;48.316;-1.050;2023-04-21T04:21:26;98448.97;;;22.09;32.89
18569;BME280;14780;48.316;-1.050;2023-04-21T04:24:11;98441.91;;;22.08;32.85
18569;BME280;14780;48.316;-1.050;2023-04-21T04:26:57;98437.50;;;22.07;32.83
18569;BME280;14780;48.316;-1.050;2023-04-21T04:29:43;98444.06;;;22.06;32.87
18569;BME280;14780;48.316;-1.050;2023-04-21T04:32:29;98444.88;;;22.07;32.92
18569;BME280;14780;48.316;-1.050;2023-04-21T04:35:14;98435.34;;;22.04;32.95
18569;BME280;14780;48.316;-1.050;2023-04-21T04:37:59;98439.97;;;22.04;32.93
18569;BME280;14780;48.316;-1.050;2023-04-21T04:40:51;98428.28;;;22.03;32.91
18569;BME280;14780;48.316;-1.050;2023-04-21T04:43:37;98431.78;;;22.04;32.85
18569;BME280;14780;48.316;-1.050;2023-04-21T04:46:22;98432.88;;;22.03;32.92
18569;BME280;14780;48.316;-1.050;2023-04-21T04:49:08;98434.25;;;22.00;32.89
18569;BME280;14780;48.316;-1.050;2023-04-21T04:51:52;98436.72;;;22.02;32.90
18569;BME280;14780;48.316;-1.050;2023-04-21T04:54:37;98434.56;;;21.99;32.82
18569;BME280;14780;48.316;-1.050;2023-04-21T04:57:21;98436.72;;;21.97;32.90
18569;BME280;14780;48.316;-1.050;2023-04-21T05:00:07;98444.09;;;21.96;32.92
18569;BME280;14780;48.316;-1.050;2023-04-21T05:02:54;98434.28;;;21.95;32.82
18569;BME280;14780;48.316;-1.050;2023-04-21T05:05:39;98429.09;;;21.94;32.83
18569;BME280;14780;48.316;-1.050;2023-04-21T05:08:24;98428.28;;;21.93;32.87
18569;BME280;14780;48.316;-1.050;2023-04-21T05:11:08;98430.47;;;21.91;32.80
18569;BME280;14780;48.316;-1.050;2023-04-21T05:13:53;98425.28;;;21.90;32.77
18569;BME280;14780;48.316;-1.050;2023-04-21T05:16:38;98436.75;;;21.92;32.79
18569;BME280;14780;48.316;-1.050;2023-04-21T05:19:23;98431.28;;;21.92;32.83
18569;BME280;14780;48.316;-1.050;2023-04-21T05:22:07;98440.56;;;21.91;32.83
18569;BME280;14780;48.316;-1.050;2023-04-21T05:24:52;98438.91;;;21.90;32.82
18569;BME280;14780;48.316;-1.050;2023-04-21T05:27:37;98441.09;;;21.88;32.91
18569;BME280;14780;48.316;-1.050;2023-04-21T05:30:21;98441.09;;;21.88;32.95
18569;BME280;14780;48.316;-1.050;2023-04-21T05:33:06;98447.38;;;21.88;32.83
18569;BME280;14780;48.316;-1.050;2023-04-21T05:35:52;98444.06;;;21.86;32.87
18569;BME280;14780;48.316;-1.050;2023-04-21T05:38:38;98445.47;;;21.84;33.00
18569;BME280;14780;48.316;-1.050;2023-04-21T05:41:23;98451.97;;;21.83;32.97
18569;BME280;14780;48.316;-1.050;2023-04-21T05:44:07;98447.09;;;21.85;33.06
18569;BME280;14780;48.316;-1.050;2023-04-21T05:46:52;98450.91;;;21.84;33.01
18569;BME280;14780;48.316;-1.050;2023-04-21T05:49:36;98450.09;;;21.83;33.00
18569;BME280;14780;48.316;-1.050;2023-04-21T05:52:21;98449.81;;;21.85;33.11
18569;BME280;14780;48.316;-1.050;2023-04-21T05:55:06;98441.09;;;21.83;33.05
18569;BME280;14780;48.316;-1.050;2023-04-21T05:57:51;98442.75;;;21.84;33.04
18569;BME280;14780;48.316;-1.050;2023-04-21T06:00:35;98453.34;;;21.85;33.12
18569;BME280;14780;48.316;-1.050;2023-04-21T06:03:20;98452.25;;;21.86;33.11
18569;BME280;14780;48.316;-1.050;2023-04-21T06:06:05;98447.91;;;21.85;33.29
18569;BME280;14780;48.316;-1.050;2023-04-21T06:08:50;98452.53;;;21.85;33.55
18569;BME280;14780;48.316;-1.050;2023-04-21T06:11:35;98447.09;;;21.85;33.52
18569;BME280;14780;48.316;-1.050;2023-04-21T06:14:20;98446.00;;;21.86;33.53
18569;BME280;14780;48.316;-1.050;2023-04-21T06:17:05;98444.91;;;21.87;33.61
18569;BME280;14780;48.316;-1.050;2023-04-21T06:19:49;98440.28;;;21.87;33.64
18569;BME280;14780;48.316;-1.050;2023-04-21T06:22:39;98450.34;;;21.87;33.63
18569;BME280;14780;48.316;-1.050;2023-04-21T06:25:24;98437.84;;;21.86;33.54
18569;BME280;14780;48.316;-1.050;2023-04-21T06:28:09;98444.38;;;21.85;33.69
18569;BME280;14780;48.316;-1.050;2023-04-21T06:30:54;98447.09;;;21.85;33.71
18569;BME280;14780;48.316;-1.050;2023-04-21T06:33:39;98447.09;;;21.85;33.67
18569;BME280;14780;48.316;-1.050;2023-04-21T06:36:24;98450.91;;;21.79;33.84
18569;BME280;14780;48.316;-1.050;2023-04-21T06:39:09;98444.38;;;21.80;33.97
18569;BME280;14780;48.316;-1.050;2023-04-21T06:41:54;98445.19;;;21.85;34.34
18569;BME280;14780;48.316;-1.050;2023-04-21T06:44:41;98448.72;;;21.86;34.29
18569;BME280;14780;48.316;-1.050;2023-04-21T06:47:26;98449.56;;;21.81;34.30
18569;BME280;14780;48.316;-1.050;2023-04-21T06:50:11;98455.28;;;21.85;34.40
18569;BME280;14780;48.316;-1.050;2023-04-21T06:52:56;98447.06;;;21.90;34.34
18569;BME280;14780;48.316;-1.050;2023-04-21T06:55:41;98450.06;;;21.93;34.36
18569;BME280;14780;48.316;-1.050;2023-04-21T06:58:26;98449.25;;;21.93;34.46
18569;BME280;14780;48.316;-1.050;2023-04-21T07:01:11;98448.16;;;21.94;34.51
18569;BME280;14780;48.316;-1.050;2023-04-21T07:03:55;98447.34;;;21.93;34.54
18569;BME280;14780;48.316;-1.050;2023-04-21T07:06:40;98447.34;;;21.93;34.67
18569;BME280;14780;48.316;-1.050;2023-04-21T07:09:25;98442.47;;;21.95;34.63
18569;BME280;14780;48.316;-1.050;2023-04-21T07:12:12;98437.00;;;21.95;34.74
18569;BME280;14780;48.316;-1.050;2023-04-21T07:14:57;98444.88;;;21.97;34.77
18569;BME280;14780;48.316;-1.050;2023-04-21T07:17:42;98433.72;;;21.98;34.71
18569;BME280;14780;48.316;-1.050;2023-04-21T07:20:26;98429.63;;;22.01;34.69
18569;BME280;14780;48.316;-1.050;2023-04-21T07:23:11;98426.91;;;22.01;34.77
18569;BME280;14780;48.316;-1.050;2023-04-21T07:25:55;98429.63;;;22.01;34.78
18569;BME280;14780;48.316;-1.050;2023-04-21T07:28:40;98421.47;;;22.01;34.73
18569;BME280;14780;48.316;-1.050;2023-04-21T07:31:24;98425.81;;;22.02;34.91
18569;BME280;14780;48.316;-1.050;2023-04-21T07:34:09;98423.91;;;22.02;34.92
18569;BME280;14780;48.316;-1.050;2023-04-21T07:36:55;98431.00;;;22.03;34.83
18569;BME280;14780;48.316;-1.050;2023-04-21T07:39:40;98427.44;;;22.03;34.91
18569;BME280;14780;48.316;-1.050;2023-04-21T07:42:24;98426.91;;;22.06;34.93
18569;BME280;14780;48.316;-1.050;2023-04-21T07:45:10;98432.06;;;22.07;34.90
18569;BME280;14780;48.316;-1.050;2023-04-21T07:47:56;98423.09;;;22.07;34.91
18569;BME280;14780;48.316;-1.050;2023-04-21T07:50:41;98425.56;;;22.08;34.92
18569;BME280;14780;48.316;-1.050;2023-04-21T07:53:26;98424.44;;;22.09;34.90
18569;BME280;14780;48.316;-1.050;2023-04-21T07:56:11;98426.34;;;22.09;34.96
18569;BME280;14780;48.316;-1.050;2023-04-21T07:58:56;98420.63;;;22.10;34.90
18569;BME280;14780;48.316;-1.050;2023-04-21T08:01:41;98422.00;;;22.13;35.02
18569;BME280;14780;48.316;-1.050;2023-04-21T08:04:25;98426.34;;;22.14;34.83
18569;BME280;14780;48.316;-1.050;2023-04-21T08:07:10;98424.41;;;22.14;34.89
18569;BME280;14780;48.316;-1.050;2023-04-21T08:09:56;98424.16;;;22.16;34.86
18569;BME280;14780;48.316;-1.050;2023-04-21T08:12:41;98412.16;;;22.17;34.85
18569;BME280;14780;48.316;-1.050;2023-04-21T08:15:26;98416.81;;;22.16;34.89
18569;BME280;14780;48.316;-1.050;2023-04-21T08:18:10;98422.78;;;22.18;34.93
18569;BME280;14780;48.316;-1.050;2023-04-21T08:20:55;98419.22;;;22.18;34.91
18569;BME280;14780;48.316;-1.050;2023-04-21T08:23:41;98416.25;;;22.19;34.95
18569;BME280;14780;48.316;-1.050;2023-04-21T08:26:26;98413.78;;;22.18;34.92
18569;BME280;14780;48.316;-1.050;2023-04-21T08:29:11;98403.72;;;22.18;34.88
18569;BME280;14780;48.316;-1.050;2023-04-21T08:31:56;98400.72;;;22.20;34.90
18569;BME280;14780;48.316;-1.050;2023-04-21T08:34:41;98410.78;;;22.19;34.86
18569;BME280;14780;48.316;-1.050;2023-04-21T08:37:26;98406.97;;;22.20;34.78
18569;BME280;14780;48.316;-1.050;2023-04-21T08:40:13;98404.50;;;22.19;34.91
18569;BME280;14780;48.316;-1.050;2023-04-21T08:42:58;98402.63;;;22.19;34.89
18569;BME280;14780;48.316;-1.050;2023-04-21T08:45:43;98406.16;;;22.20;34.87
18569;BME280;14780;48.316;-1.050;2023-04-21T08:48:29;98401.53;;;22.20;34.89
18569;BME280;14780;48.316;-1.050;2023-04-21T08:51:21;98386.78;;;22.21;34.78
18569;BME280;14780;48.316;-1.050;2023-04-21T08:54:06;98394.16;;;22.21;34.73
18569;BME280;14780;48.316;-1.050;2023-04-21T08:56:51;98391.44;;;22.21;34.77
18569;BME280;14780;48.316;-1.050;2023-04-21T08:59:36;98387.63;;;22.22;34.74
18569;BME280;14780;48.316;-1.050;2023-04-21T09:02:21;98382.44;;;22.20;34.81
18569;BME280;14780;48.316;-1.050;2023-04-21T09:05:06;98373.16;;;22.21;34.71
18569;BME280;14780;48.316;-1.050;2023-04-21T09:10:55;98375.09;;;22.21;34.77
18569;BME280;14780;48.316;-1.050;2023-04-21T09:13:42;98379.44;;;22.22;34.72
18569;BME280;14780;48.316;-1.050;2023-04-21T09:16:32;98365.00;;;22.21;34.72
18569;BME280;14780;48.316;-1.050;2023-04-21T09:19:16;98376.72;;;22.22;34.71
18569;BME280;14780;48.316;-1.050;2023-04-21T09:22:02;98372.91;;;22.23;34.73
18569;BME280;14780;48.316;-1.050;2023-04-21T09:24:48;98367.47;;;22.23;34.75
18569;BME280;14780;48.316;-1.050;2023-04-21T09:27:37;98371.53;;;22.25;34.77
18569;BME280;14780;48.316;-1.050;2023-04-21T09:30:21;98372.63;;;22.24;34.61
18569;BME280;14780;48.316;-1.050;2023-04-21T09:33:07;98373.44;;;22.25;34.60
18569;BME280;14780;48.316;-1.050;2023-04-21T09:36:00;98369.59;;;22.26;34.70
18569;BME280;14780;48.316;-1.050;2023-04-21T09:41:38;98374.00;;;22.27;34.58
18569;BME280;14780;48.316;-1.050;2023-04-21T09:44:25;98368.53;;;22.27;34.66
18569;BME280;14780;48.316;-1.050;2023-04-21T09:47:10;98366.63;;;22.27;34.63
18569;BME280;14780;48.316;-1.050;2023-04-21T09:49:57;98374.53;;;22.29;34.62
18569;BME280;14780;48.316;-1.050;2023-04-21T09:52:43;98367.13;;;22.29;34.54
18569;BME280;14780;48.316;-1.050;2023-04-21T09:55:31;98363.34;;;22.30;34.52
18569;BME280;14780;48.316;-1.050;2023-04-21T09:58:20;98366.34;;;22.34;34.60
18569;BME280;14780;48.316;-1.050;2023-04-21T10:01:08;98366.84;;;22.36;34.54
18569;BME280;14780;48.316;-1.050;2023-04-21T10:03:54;98358.69;;;22.36;34.55
18569;BME280;14780;48.316;-1.050;2023-04-21T10:06:39;98359.22;;;22.38;34.59
18569;BME280;14780;48.316;-1.050;2023-04-21T10:09:29;98347.22;;;22.39;34.59
18569;BME280;14780;48.316;-1.050;2023-04-21T10:12:15;98347.78;;;22.41;34.48
18569;BME280;14780;48.316;-1.050;2023-04-21T10:15:04;98348.56;;;22.41;34.51
18569;BME280;14780;48.316;-1.050;2023-04-21T10:17:50;98348.06;;;22.44;34.50
18569;BME280;14780;48.316;-1.050;2023-04-21T10:23:47;98352.66;;;22.49;34.62
18569;BME280;14780;48.316;-1.050;2023-04-21T10:26:34;98352.91;;;22.52;34.75
18569;BME280;14780;48.316;-1.050;2023-04-21T10:29:28;98349.59;;;22.60;35.02
18569;BME280;14780;48.316;-1.050;2023-04-21T10:32:35;98344.91;;;22.66;35.04
18569;BME280;14780;48.316;-1.050;2023-04-21T10:35:22;98347.38;;;22.67;35.20
18569;BME280;14780;48.316;-1.050;2023-04-21T10:38:07;98349.78;;;22.69;35.13
18569;BME280;14780;48.316;-1.050;2023-04-21T10:40:53;98342.44;;;22.69;35.25
18569;BME280;14780;48.316;-1.050;2023-04-21T10:43:45;98346.25;;;22.73;35.25
18569;BME280;14780;48.316;-1.050;2023-04-21T10:46:34;98336.97;;;22.74;35.31
18569;BME280;14780;48.316;-1.050;2023-04-21T10:49:29;98336.91;;;22.79;35.27
18569;BME280;14780;48.316;-1.050;2023-04-21T10:52:14;98332.28;;;22.80;35.39
18569;BME280;14780;48.316;-1.050;2023-04-21T10:55:06;98330.63;;;22.84;35.41
18569;BME280;14780;48.316;-1.050;2023-04-21T10:57:54;98322.97;;;22.86;35.49
18569;BME280;14780;48.316;-1.050;2023-04-21T11:00:39;98316.66;;;22.90;35.55
18569;BME280;14780;48.316;-1.050;2023-04-21T11:03:24;98319.66;;;22.94;35.90
18569;BME280;14780;48.316;-1.050;2023-04-21T11:06:17;98315.22;;;22.98;35.95
18569;BME280;14780;48.316;-1.050;2023-04-21T11:09:02;98320.13;;;23.01;35.93
18569;BME280;14780;48.316;-1.050;2023-04-21T11:12:00;98309.47;;;23.04;35.91
18569;BME280;14780;48.316;-1.050;2023-04-21T11:14:47;98308.63;;;23.04;35.90
18569;BME280;14780;48.316;-1.050;2023-04-21T11:17:32;98302.38;;;23.03;35.97
18569;BME280;14780;48.316;-1.050;2023-04-21T11:20:17;98314.94;;;23.04;35.93
18569;BME280;14780;48.316;-1.050;2023-04-21T11:23:02;98312.44;;;23.08;35.95
18569;BME280;14780;48.316;-1.050;2023-04-21T11:25:46;98310.22;;;23.10;36.09
18569;BME280;14780;48.316;-1.050;2023-04-21T11:28:31;98309.13;;;23.11;36.14
18569;BME280;14780;48.316;-1.050;2023-04-21T11:31:16;98309.66;;;23.18;36.15
18569;BME280;14780;48.316;-1.050;2023-04-21T11:34:02;98297.06;;;23.22;36.09
18569;BME280;14780;48.316;-1.050;2023-04-21T11:36:53;98299.22;;;23.25;36.02
18569;BME280;14780;48.316;-1.050;2023-04-21T11:39:42;98295.63;;;23.29;35.97
18569;BME280;14780;48.316;-1.050;2023-04-21T11:42:28;98287.16;;;23.31;36.01
18569;BME280;14780;48.316;-1.050;2023-04-21T11:45:17;98292.03;;;23.33;35.99
18569;BME280;14780;48.316;-1.050;2023-04-21T11:48:15;98290.38;;;23.38;35.82
18569;BME280;14780;48.316;-1.050;2023-04-21T11:51:01;98291.47;;;23.37;35.82
18569;BME280;14780;48.316;-1.050;2023-04-21T11:53:48;98277.81;;;23.37;35.88
18569;BME280;14780;48.316;-1.050;2023-04-21T11:56:35;98282.13;;;23.42;35.84
18569;BME280;14780;48.316;-1.050;2023-04-21T11:59:22;98282.59;;;23.49;35.72
18569;BME280;14780;48.316;-1.050;2023-04-21T12:02:19;98288.59;;;23.51;35.65
18569;BME280;14780;48.316;-1.050;2023-04-21T12:05:10;98280.97;;;23.48;35.67
18569;BME280;14780;48.316;-1.050;2023-04-21T12:07:55;98277.94;;;23.50;35.72
18569;BME280;14780;48.316;-1.050;2023-04-21T12:10:44;98268.38;;;23.52;35.63
18569;BME280;14780;48.316;-1.050;2023-04-21T12:13:29;98267.78;;;23.55;35.63
18569;BME280;14780;48.316;-1.050;2023-04-21T12:16:16;98274.88;;;23.56;35.54
18569;BME280;14780;48.316;-1.050;2023-04-21T12:19:01;98278.13;;;23.58;35.56
18569;BME280;14780;48.316;-1.050;2023-04-21T12:21:52;98269.91;;;23.63;35.48
18569;BME280;14780;48.316;-1.050;2023-04-21T12:24:39;98275.34;;;23.63;35.46
18569;BME280;14780;48.316;-1.050;2023-04-21T12:27:25;98273.16;;;23.65;35.42
18569;BME280;14780;48.316;-1.050;2023-04-21T12:30:10;98266.28;;;23.68;35.32
18569;BME280;14780;48.316;-1.050;2023-04-21T12:32:55;98270.94;;;23.67;35.36
18569;BME280;14780;48.316;-1.050;2023-04-21T12:35:40;98270.94;;;23.67;35.38
18569;BME280;14780;48.316;-1.050;2023-04-21T12:38:25;98270.06;;;23.72;35.16
18569;BME280;14780;48.316;-1.050;2023-04-21T12:41:09;98264.81;;;23.75;35.18
18569;BME280;14780;48.316;-1.050;2023-04-21T12:43:54;98269.41;;;23.80;35.19
18569;BME280;14780;48.316;-1.050;2023-04-21T12:46:39;98266.41;;;23.81;35.14
18569;BME280;14780;48.316;-1.050;2023-04-21T12:49:24;98270.25;;;23.80;35.18
18569;BME280;14780;48.316;-1.050;2023-04-21T12:52:09;98272.97;;;23.80;35.06
18569;BME280;14780;48.316;-1.050;2023-04-21T12:54:53;98267.00;;;23.78;35.09
18569;BME280;14780;48.316;-1.050;2023-04-21T12:57:39;98267.00;;;23.78;35.05
18569;BME280;14780;48.316;-1.050;2023-04-21T13:00:24;98263.94;;;23.80;35.03
18569;BME280;14780;48.316;-1.050;2023-04-21T13:03:08;98267.50;;;23.80;35.03
18569;BME280;14780;48.316;-1.050;2023-04-21T13:05:54;98261.53;;;23.78;34.98
18569;BME280;14780;48.316;-1.050;2023-04-21T13:08:38;98256.34;;;23.77;35.07
18569;BME280;14780;48.316;-1.050;2023-04-21T13:11:23;98252.00;;;23.76;34.99
18569;BME280;14780;48.316;-1.050;2023-04-21T13:14:07;98249.53;;;23.74;34.96
18569;BME280;14780;48.316;-1.050;2023-04-21T13:16:53;98251.75;;;23.72;34.90
18569;BME280;14780;48.316;-1.050;2023-04-21T13:19:37;98256.41;;;23.72;34.93
18569;BME280;14780;48.316;-1.050;2023-04-21T13:22:22;98250.13;;;23.71;34.93
18569;BME280;14780;48.316;-1.050;2023-04-21T13:25:07;98243.06;;;23.70;34.85
18569;BME280;14780;48.316;-1.050;2023-04-21T13:27:52;98250.94;;;23.72;34.76
18569;BME280;14780;48.316;-1.050;2023-04-21T13:30:36;98243.56;;;23.72;34.85
18569;BME280;14780;48.316;-1.050;2023-04-21T13:33:22;98245.19;;;23.73;34.84
18569;BME280;14780;48.316;-1.050;2023-04-21T13:36:07;98240.84;;;23.72;34.82
18569;BME280;14780;48.316;-1.050;2023-04-21T13:38:53;98241.34;;;23.74;34.87
18569;BME280;14780;48.316;-1.050;2023-04-21T13:41:39;98233.97;;;23.75;34.88
18569;BME280;14780;48.316;-1.050;2023-04-21T13:44:24;98238.06;;;23.77;34.85
18569;BME280;14780;48.316;-1.050;2023-04-21T13:47:09;98233.09;;;23.79;34.74
18569;BME280;14780;48.316;-1.050;2023-04-21T13:49:54;98228.53;;;23.75;34.83
18569;BME280;14780;48.316;-1.050;2023-04-21T13:52:39;98221.66;;;23.77;34.80
18569;BME280;14780;48.316;-1.050;2023-04-21T13:55:24;98221.66;;;23.77;34.76
18569;BME280;14780;48.316;-1.050;2023-04-21T13:58:09;98219.44;;;23.79;34.85
18569;BME280;14780;48.316;-1.050;2023-04-21T14:00:55;98210.63;;;23.87;34.63
18569;BME280;14780;48.316;-1.050;2023-04-21T14:03:40;98217.94;;;23.92;34.61
18569;BME280;14780;48.316;-1.050;2023-04-21T14:06:25;98206.19;;;23.91;34.68
18569;BME280;14780;48.316;-1.050;2023-04-21T14:09:10;98202.88;;;23.94;34.58
18569;BME280;14780;48.316;-1.050;2023-04-21T14:11:55;98204.78;;;23.94;34.52
18569;BME280;14780;48.316;-1.050;2023-04-21T14:14:40;98202.38;;;23.92;34.59
18569;BME280;14780;48.316;-1.050;2023-04-21T14:17:25;98210.84;;;23.91;34.49
18569;BME280;14780;48.316;-1.050;2023-04-21T14:20:10;98201.31;;;23.88;34.53
18569;BME280;14780;48.316;-1.050;2023-04-21T14:22:55;98203.53;;;23.86;34.51
18569;BME280;14780;48.316;-1.050;2023-04-21T14:25:39;98189.34;;;23.84;34.46
18569;BME280;14780;48.316;-1.050;2023-04-21T14:28:24;98198.09;;;23.81;34.36
18569;BME280;14780;48.316;-1.050;2023-04-21T14:31:09;98192.66;;;23.81;34.61
18569;BME280;14780;48.316;-1.050;2023-04-21T14:33:54;98190.97;;;23.85;34.69
18569;BME280;14780;48.316;-1.050;2023-04-21T14:36:39;98183.31;;;23.87;34.57